createdAt,value
2018-06-04T00:21:21.701Z,50.73
2018-06-04T02:13:09.793Z,41.70
2018-06-04T02:15:38.172Z,38.43
2018-06-04T02:21:06.658Z,32.47
2018-06-04T02:23:41.513Z,34.83
2018-06-04T02:26:09.853Z,30.60
2018-06-04T02:28:38.181Z,26.87
2018-06-04T02:31:06.553Z,25.53
2018-06-04T02:33:34.874Z,24.90
2018-06-04T02:36:03.210Z,22.17
2018-06-04T02:38:31.502Z,21.57
2018-06-04T02:40:59.870Z,20.70
2018-06-04T02:43:28.201Z,22.70
2018-06-04T02:45:56.538Z,20.23
2018-06-04T02:48:24.863Z,19.43
2018-06-04T02:50:53.157Z,19.00
2018-06-04T02:53:21.485Z,17.67
2018-06-04T02:55:49.783Z,17.93
2018-06-04T02:58:18.093Z,16.50
2018-06-04T03:00:46.382Z,19.13
2018-06-04T03:03:14.673Z,17.87
2018-06-04T03:05:42.956Z,16.00
2018-06-04T03:08:11.231Z,16.03
2018-06-04T03:10:39.554Z,16.80
2018-06-04T04:16:33.465Z,15.33
2018-06-04T04:19:01.929Z,13.83
2018-06-04T04:21:30.265Z,13.77
2018-06-04T04:23:58.554Z,14.37
2018-06-04T04:26:26.977Z,13.63
2018-06-04T04:28:55.290Z,17.50
2018-06-04T04:31:23.617Z,13.83
2018-06-04T04:33:51.930Z,13.47
2018-06-04T04:36:20.217Z,14.60
2018-06-04T04:38:48.525Z,14.20
2018-06-04T04:41:16.825Z,14.63
2018-06-04T04:43:45.118Z,15.33
2018-06-04T04:46:13.428Z,14.80
2018-06-04T04:48:41.778Z,13.97
2018-06-04T04:51:10.059Z,14.57
2018-06-04T04:53:38.325Z,15.03
2018-06-04T04:56:06.602Z,15.57
2018-06-04T04:58:34.886Z,15.83
2018-06-04T05:01:03.161Z,16.70
2018-06-04T05:03:31.441Z,16.33
2018-06-04T05:05:59.721Z,16.47
2018-06-04T05:08:27.981Z,19.37
2018-06-04T05:10:56.268Z,16.70
2018-06-04T05:13:24.571Z,14.83
2018-06-04T05:15:52.875Z,17.87
2018-06-04T05:18:23.474Z,20.33
2018-06-04T05:20:51.757Z,17.63
2018-06-04T05:23:20.041Z,21.87
2018-06-04T05:25:48.336Z,20.33
2018-06-04T05:28:16.670Z,21.30
2018-06-04T05:30:44.954Z,18.20
2018-06-04T05:33:13.239Z,20.13
2018-06-04T05:35:41.534Z,18.50
2018-06-04T05:38:09.837Z,21.47
2018-06-04T05:40:38.101Z,19.03
2018-06-04T05:43:06.421Z,21.87
2018-06-04T05:45:34.703Z,21.53
2018-06-04T05:48:03.053Z,21.60
2018-06-04T05:50:31.353Z,21.03
2018-06-04T05:52:59.638Z,19.93
2018-06-04T05:55:27.938Z,21.50
2018-06-04T05:57:56.245Z,21.43
2018-06-04T06:00:24.529Z,22.07
2018-06-04T06:02:52.802Z,26.80
2018-06-04T06:05:21.071Z,24.40
2018-06-04T06:07:49.374Z,26.90
2018-06-04T06:10:17.657Z,26.37
2018-06-04T06:15:39.220Z,26.30
2018-06-04T06:18:07.492Z,30.60
2018-06-04T06:23:28.861Z,28.73
2018-06-04T06:25:57.137Z,27.43
2018-06-04T06:28:25.401Z,23.90
2018-06-04T06:30:53.725Z,27.00
2018-06-04T06:33:21.954Z,32.37
2018-06-04T06:35:50.256Z,28.70
2018-06-04T06:38:18.534Z,26.83
2018-06-04T06:40:46.818Z,25.83
2018-06-04T06:43:15.140Z,27.07
2018-06-04T06:45:43.447Z,28.43
2018-06-04T06:48:11.729Z,34.90
2018-06-04T06:50:40.035Z,32.23
2018-06-04T06:53:08.307Z,29.80
2018-06-04T06:55:36.621Z,28.87
2018-06-04T06:58:04.903Z,26.90
2018-06-04T07:00:33.208Z,26.30
2018-06-04T07:03:01.494Z,25.57
2018-06-04T07:05:29.787Z,29.23
2018-06-04T07:07:58.067Z,29.97
2018-06-04T07:10:26.362Z,26.33
2018-06-04T07:12:54.628Z,25.83
2018-06-04T07:15:22.922Z,22.87
2018-06-04T07:17:51.219Z,23.37
2018-06-04T08:14:59.940Z,19.03
2018-06-04T08:17:28.245Z,20.43
2018-06-04T08:22:49.581Z,23.03
2018-06-04T08:25:17.872Z,20.77
2018-06-04T08:27:46.182Z,20.70
2018-06-04T08:30:14.521Z,20.13
2018-06-04T08:32:42.844Z,19.80
2018-06-04T08:35:11.156Z,18.67
2018-06-04T08:37:39.544Z,20.93
2018-06-04T08:40:07.856Z,20.27
2018-06-04T08:42:36.219Z,21.10
2018-06-04T08:45:04.879Z,18.17
2018-06-04T08:47:33.201Z,20.03
2018-06-04T08:50:01.477Z,18.67
2018-06-04T08:52:29.745Z,20.57
2018-06-04T08:54:58.021Z,17.87
2018-06-04T08:57:26.310Z,20.90
2018-06-04T08:59:54.578Z,21.47
2018-06-04T09:02:22.870Z,20.73
2018-06-04T09:04:51.170Z,21.27
2018-06-04T09:07:19.450Z,22.07
2018-06-04T09:09:47.723Z,22.13
2018-06-04T09:12:16.000Z,23.10
2018-06-04T09:20:44.265Z,24.87
2018-06-04T09:23:12.553Z,25.40
2018-06-04T09:25:40.888Z,26.60
2018-06-04T09:28:09.244Z,24.40
2018-06-04T09:30:37.548Z,18.97
2018-06-04T09:33:05.838Z,17.17
2018-06-04T09:35:34.141Z,17.57
2018-06-04T09:38:02.481Z,17.00
2018-06-04T09:40:30.813Z,18.20
2018-06-04T09:42:59.168Z,18.73
2018-06-04T09:45:27.490Z,19.07
2018-06-04T09:47:55.838Z,13.57
2018-06-04T09:50:24.165Z,13.70
2018-06-04T09:52:52.442Z,16.03
2018-06-04T09:55:20.723Z,15.70
2018-06-04T09:57:48.982Z,22.13
2018-06-04T10:00:22.762Z,14.80
2018-06-04T10:02:51.030Z,18.13
2018-06-04T10:05:19.287Z,14.23
2018-06-04T10:07:47.597Z,14.10
2018-06-04T10:10:15.876Z,18.13
2018-06-04T10:15:37.841Z,17.17
2018-06-04T11:15:20.107Z,14.57
2018-06-04T11:20:40.330Z,13.90
2018-06-04T14:19:23.473Z,9.13
2018-06-04T14:22:25.740Z,9.03
2018-06-04T14:24:54.082Z,8.47
2018-06-04T14:27:22.437Z,10.90
2018-06-04T14:29:50.775Z,9.83
2018-06-04T14:32:19.093Z,10.60
2018-06-04T14:34:47.438Z,9.50
2018-06-04T14:37:15.755Z,10.30
2018-06-04T14:39:44.066Z,9.60
2018-06-04T14:42:12.404Z,11.00
2018-06-04T14:44:40.720Z,9.93
2018-06-04T14:47:09.022Z,10.37
2018-06-04T14:49:37.320Z,10.73
2018-06-04T14:52:05.577Z,9.87
2018-06-04T14:54:33.862Z,13.03
2018-06-04T14:57:02.112Z,10.97
2018-06-04T14:59:30.395Z,12.80
2018-06-04T15:01:58.681Z,11.90
2018-06-04T15:04:27.120Z,11.17
2018-06-04T15:06:55.262Z,11.87
2018-06-04T15:09:23.651Z,11.77
2018-06-04T15:11:51.944Z,11.60
2018-06-04T15:17:13.450Z,13.77
2018-06-04T15:26:56.552Z,12.90
2018-06-04T15:29:24.867Z,12.50
2018-06-04T15:31:53.185Z,12.50
2018-06-04T15:34:21.513Z,13.03
2018-06-04T15:36:49.837Z,12.27
2018-06-04T15:39:18.127Z,12.80
2018-06-04T15:41:46.417Z,12.40
2018-06-04T15:44:14.701Z,13.27
2018-06-04T15:46:42.996Z,11.07
2018-06-04T15:49:11.288Z,12.33
2018-06-04T15:51:39.568Z,11.37
2018-06-04T15:54:07.843Z,11.13
2018-06-04T15:56:36.150Z,11.50
2018-06-04T15:59:04.429Z,12.17
2018-06-04T16:01:32.714Z,11.17
2018-06-04T16:04:01.016Z,11.20
2018-06-04T16:06:29.325Z,11.43
2018-06-04T16:08:57.675Z,11.37
2018-06-04T16:11:25.921Z,11.50
2018-06-04T16:13:55.494Z,11.27
2018-06-04T16:16:23.787Z,11.87
2018-06-04T16:18:57.252Z,12.00
2018-06-04T16:21:27.100Z,11.03
2018-06-04T16:23:55.372Z,11.53
2018-06-04T16:26:23.674Z,11.00
2018-06-04T16:28:51.955Z,10.07
2018-06-04T16:31:20.245Z,10.10
2018-06-04T16:33:48.539Z,11.30
2018-06-04T16:36:16.839Z,11.00
2018-06-04T16:38:45.145Z,16.60
2018-06-04T16:41:13.417Z,10.70
2018-06-04T16:43:41.698Z,11.00
2018-06-04T16:46:10.010Z,11.03
2018-06-04T16:48:38.345Z,13.10
2018-06-04T16:51:06.648Z,11.70
2018-06-04T16:53:34.917Z,11.90
2018-06-04T16:56:03.178Z,11.80
2018-06-04T16:58:31.452Z,12.67
2018-06-04T17:00:59.736Z,12.13
2018-06-04T17:03:28.020Z,12.93
2018-06-04T17:05:56.290Z,12.80
2018-06-04T17:08:24.662Z,12.80
2018-06-04T17:10:52.917Z,12.83
2018-06-04T17:19:17.863Z,13.80
2018-06-04T17:21:49.481Z,13.40
2018-06-04T17:24:17.786Z,13.30
2018-06-04T17:26:46.089Z,13.23
2018-06-04T17:29:14.573Z,13.00
2018-06-04T17:31:42.957Z,13.17
2018-06-04T17:34:11.270Z,13.93
2018-06-04T17:36:39.565Z,14.57
2018-06-04T17:39:08.485Z,12.97
2018-06-04T17:41:37.028Z,13.47
2018-06-04T17:44:05.354Z,19.23
2018-06-04T17:46:33.649Z,17.83
2018-06-04T17:49:01.969Z,14.77
2018-06-04T17:51:30.236Z,15.17
2018-06-04T17:53:58.568Z,15.03
2018-06-04T17:56:26.773Z,17.10
2018-06-04T17:58:55.030Z,15.83
2018-06-04T18:01:23.316Z,19.67
2018-06-04T18:03:51.585Z,16.57
2018-06-04T18:06:19.865Z,16.40
2018-06-04T18:08:48.100Z,16.63
2018-06-04T18:11:16.372Z,16.67
2018-06-04T18:14:54.884Z,15.43
2018-06-04T18:17:23.157Z,15.70
2018-06-04T18:19:51.436Z,15.50
2018-06-04T18:25:12.741Z,16.37
2018-06-04T18:27:41.004Z,17.00
2018-06-04T18:30:10.118Z,17.43
2018-06-04T18:32:38.369Z,17.07
2018-06-04T18:35:06.622Z,16.73
2018-06-04T18:37:34.883Z,15.43
2018-06-04T18:40:03.288Z,17.47
2018-06-04T18:42:31.558Z,15.93
2018-06-04T18:44:59.858Z,15.40
2018-06-04T18:47:28.156Z,16.93
2018-06-04T18:49:57.355Z,16.07
2018-06-04T18:52:25.677Z,16.30
2018-06-04T18:54:53.971Z,16.33
2018-06-04T18:57:22.257Z,18.47
2018-06-04T18:59:50.522Z,17.00
2018-06-04T19:02:18.800Z,17.60
2018-06-04T19:04:47.077Z,16.10
2018-06-04T19:07:15.349Z,17.40
2018-06-04T19:09:43.658Z,16.83
2018-06-04T19:12:11.950Z,17.20
2018-06-04T19:14:40.245Z,16.53
2018-06-04T19:17:08.536Z,16.87
2018-06-04T19:19:38.576Z,18.83
2018-06-04T19:22:06.988Z,18.27
2018-06-04T19:24:35.252Z,17.97
2018-06-04T19:27:03.513Z,17.83
2018-06-04T19:29:31.793Z,16.70
2018-06-04T19:32:00.408Z,17.63
2018-06-04T19:34:29.763Z,18.17
2018-06-04T19:36:58.057Z,17.00
2018-06-04T19:39:26.364Z,16.40
2018-06-04T19:41:54.629Z,19.40
2018-06-04T19:44:22.948Z,18.27
2018-06-04T19:46:51.208Z,18.63
2018-06-04T19:49:19.505Z,19.17
2018-06-04T19:51:47.848Z,17.23
2018-06-04T19:54:16.089Z,17.37
2018-06-04T19:56:44.354Z,17.50
2018-06-04T19:59:12.649Z,17.03
2018-06-04T20:01:40.964Z,17.90
2018-06-04T20:04:09.245Z,19.93
2018-06-04T20:06:37.513Z,18.60
2018-06-04T20:09:08.248Z,17.90
2018-06-04T20:11:36.732Z,18.87
2018-06-04T20:20:02.586Z,20.80
2018-06-04T20:25:24.025Z,21.83
2018-06-04T20:27:52.441Z,20.20
2018-06-04T20:30:20.887Z,24.87
2018-06-04T20:32:49.241Z,20.87
2018-06-04T20:35:17.573Z,20.40
2018-06-04T20:37:46.324Z,21.13
2018-06-04T20:40:14.629Z,24.17
2018-06-04T20:42:43.062Z,26.33
2018-06-04T20:45:11.453Z,22.33
2018-06-04T20:47:40.863Z,22.00
2018-06-04T20:50:09.236Z,24.37
2018-06-04T20:52:37.589Z,26.23
2018-06-04T20:55:06.368Z,23.20
2018-06-04T20:57:34.701Z,31.53
2018-06-04T21:00:03.048Z,24.37
2018-06-04T21:02:31.420Z,31.13
2018-06-04T21:04:59.685Z,27.77
2018-06-04T21:07:27.966Z,31.80
2018-06-04T21:09:56.268Z,26.63
2018-06-04T21:12:24.537Z,28.40
2018-06-04T21:23:51.808Z,24.37
2018-06-04T21:26:20.137Z,29.33
2018-06-04T21:28:48.589Z,28.27
2018-06-04T21:31:19.688Z,28.17
2018-06-04T21:33:48.053Z,29.13
2018-06-04T21:36:16.377Z,30.70
2018-06-04T21:38:44.781Z,33.03
2018-06-04T21:41:13.169Z,31.53
2018-06-04T21:43:42.940Z,30.13
2018-06-04T21:46:11.288Z,30.37
2018-06-04T21:48:43.812Z,28.03
2018-06-04T21:51:12.134Z,29.70
2018-06-04T21:53:40.462Z,28.73
2018-06-04T21:56:08.812Z,28.50
2018-06-04T21:58:37.157Z,27.40
2018-06-04T22:01:05.483Z,31.07
2018-06-04T22:03:33.786Z,31.20
2018-06-04T22:06:02.078Z,28.63
2018-06-04T22:08:30.398Z,30.57
2018-06-04T22:10:59.280Z,30.60
2018-06-04T22:13:27.565Z,28.13
2018-06-04T22:15:55.843Z,31.40
2018-06-04T22:18:24.317Z,30.07
2018-06-04T22:21:02.133Z,29.40
2018-06-04T23:15:09.367Z,36.63
2018-06-04T23:20:41.101Z,34.47
2018-06-04T23:23:09.428Z,36.73
2018-06-04T23:25:37.726Z,34.23
2018-06-04T23:28:06.045Z,37.67
2018-06-04T23:30:34.357Z,41.23
2018-06-04T23:33:02.666Z,32.10
2018-06-04T23:35:30.957Z,30.73
2018-06-04T23:37:59.276Z,32.47
2018-06-04T23:40:27.610Z,33.50
2018-06-04T23:42:55.917Z,38.03
2018-06-04T23:45:24.238Z,28.93
2018-06-04T23:47:52.535Z,34.70
2018-06-04T23:50:20.805Z,31.93
2018-06-04T23:52:49.079Z,36.67
2018-06-04T23:55:17.361Z,32.70
2018-06-04T23:57:45.636Z,33.37
